createdAt,value
2017-08-25T00:00:27.300Z,0
2017-08-25T00:01:27.300Z,0
2017-08-25T00:02:27.367Z,0
2017-08-25T00:03:27.281Z,0
2017-08-25T00:04:27.329Z,0
2017-08-25T00:05:27.321Z,0
2017-08-25T00:06:27.310Z,0
2017-08-25T00:07:27.279Z,0
2017-08-25T00:08:27.296Z,0
2017-08-25T00:09:27.301Z,0
2017-08-25T00:10:27.328Z,0
2017-08-25T00:11:27.353Z,0
2017-08-25T00:12:27.346Z,0
2017-08-25T00:13:27.327Z,0
2017-08-25T00:14:27.329Z,0
2017-08-25T00:15:27.287Z,0
2017-08-25T00:16:27.287Z,0
2017-08-25T00:17:27.315Z,0
2017-08-25T00:18:27.309Z,0
2017-08-25T00:19:27.314Z,0
2017-08-25T00:20:27.357Z,0
2017-08-25T00:21:27.289Z,0
2017-08-25T00:22:27.332Z,0
2017-08-25T00:23:27.308Z,0
2017-08-25T00:24:27.286Z,0
2017-08-25T00:25:27.335Z,0
2017-08-25T00:26:27.381Z,0
2017-08-25T00:27:27.366Z,0
2017-08-25T00:28:27.370Z,0
2017-08-25T00:29:27.369Z,0
2017-08-25T00:30:27.319Z,0
2017-08-25T00:31:27.371Z,0
2017-08-25T00:32:27.324Z,0
2017-08-25T00:33:27.354Z,0
2017-08-25T00:34:27.414Z,0
2017-08-25T00:35:27.353Z,0
2017-08-25T00:36:27.420Z,0
2017-08-25T00:37:27.348Z,0
2017-08-25T00:38:27.355Z,0
2017-08-25T00:39:27.351Z,0
2017-08-25T00:40:27.385Z,0
2017-08-25T00:41:27.393Z,0
2017-08-25T00:42:27.320Z,0
2017-08-25T00:43:27.350Z,0
2017-08-25T00:44:27.424Z,0
2017-08-25T00:45:27.385Z,0
2017-08-25T00:46:27.323Z,0
2017-08-25T00:47:27.319Z,0
2017-08-25T00:48:27.261Z,0
2017-08-25T00:49:27.327Z,0
2017-08-25T00:50:27.344Z,0
2017-08-25T00:51:27.345Z,0
2017-08-25T00:52:27.310Z,0
2017-08-25T00:53:27.308Z,0
2017-08-25T00:54:27.317Z,0
2017-08-25T00:55:27.343Z,0
2017-08-25T00:56:27.346Z,0
2017-08-25T00:57:27.386Z,0
2017-08-25T00:58:27.428Z,0
2017-08-25T00:59:27.405Z,0
2017-08-25T01:00:27.356Z,0
2017-08-25T01:01:27.436Z,0
2017-08-25T01:02:27.397Z,0
2017-08-25T01:03:27.429Z,0
2017-08-25T01:04:27.344Z,0
2017-08-25T01:05:27.431Z,0
2017-08-25T01:06:27.393Z,0
2017-08-25T01:07:27.350Z,0
2017-08-25T01:08:27.319Z,0
2017-08-25T01:09:27.316Z,0
2017-08-25T01:10:27.363Z,0
2017-08-25T01:11:27.338Z,0
2017-08-25T01:12:27.291Z,0
2017-08-25T01:13:27.341Z,0
2017-08-25T01:14:27.371Z,0
2017-08-25T01:15:27.367Z,0
2017-08-25T01:16:27.358Z,0
2017-08-25T01:17:27.370Z,0
2017-08-25T01:18:27.409Z,0
2017-08-25T01:19:27.442Z,0
2017-08-25T01:20:27.379Z,0
2017-08-25T01:21:27.402Z,0
2017-08-25T01:22:27.375Z,0
2017-08-25T01:23:27.422Z,0
2017-08-25T01:24:27.378Z,0
2017-08-25T01:25:27.375Z,0
2017-08-25T01:26:27.407Z,0
2017-08-25T01:27:27.382Z,0
2017-08-25T01:28:27.352Z,0
2017-08-25T01:29:27.388Z,0
2017-08-25T01:30:27.365Z,0
2017-08-25T01:31:27.406Z,0
2017-08-25T01:32:27.428Z,0
2017-08-25T01:33:27.386Z,0
2017-08-25T01:34:27.383Z,0
2017-08-25T01:35:27.444Z,0
2017-08-25T01:36:27.427Z,0
2017-08-25T01:37:27.385Z,0
2017-08-25T01:38:27.412Z,0
2017-08-25T01:39:27.349Z,0
2017-08-25T01:40:27.380Z,0
2017-08-25T01:41:27.418Z,0
2017-08-25T01:42:27.384Z,0
2017-08-25T01:43:27.390Z,0
2017-08-25T01:44:27.417Z,0
2017-08-25T01:45:27.390Z,0
2017-08-25T01:46:27.418Z,0
2017-08-25T01:47:27.465Z,0
2017-08-25T01:48:27.398Z,0
2017-08-25T01:49:27.510Z,0
2017-08-25T01:50:27.392Z,0
2017-08-25T01:51:27.432Z,0
2017-08-25T01:52:27.458Z,0
2017-08-25T01:53:27.388Z,0
2017-08-25T01:54:27.438Z,0
2017-08-25T01:55:27.441Z,0
2017-08-25T01:56:27.461Z,0
2017-08-25T01:57:27.406Z,0
2017-08-25T01:58:27.461Z,0
2017-08-25T01:59:27.462Z,0
2017-08-25T02:00:27.462Z,0
2017-08-25T02:01:27.397Z,0
2017-08-25T02:02:27.445Z,0
2017-08-25T02:03:27.369Z,0
2017-08-25T02:04:27.473Z,0
2017-08-25T02:05:27.448Z,0
2017-08-25T02:06:27.393Z,0
2017-08-25T02:07:27.426Z,0
2017-08-25T02:08:27.426Z,0
2017-08-25T02:09:27.368Z,0
2017-08-25T02:10:27.397Z,0
2017-08-25T02:11:27.432Z,0
2017-08-25T02:12:27.400Z,0
2017-08-25T02:13:27.434Z,0
2017-08-25T02:14:27.431Z,0
2017-08-25T02:15:27.403Z,0
2017-08-25T02:16:27.402Z,0
2017-08-25T02:17:27.408Z,0
2017-08-25T02:18:27.442Z,0
2017-08-25T02:19:27.471Z,0
2017-08-25T02:20:27.475Z,0
2017-08-25T02:21:27.435Z,0
2017-08-25T02:22:27.382Z,0
2017-08-25T02:23:27.417Z,0
2017-08-25T02:24:27.438Z,0
2017-08-25T02:25:27.484Z,0
2017-08-25T02:26:27.438Z,0
2017-08-25T02:27:27.397Z,0
2017-08-25T02:28:27.385Z,0
2017-08-25T02:29:27.422Z,0
2017-08-25T02:30:27.388Z,0
2017-08-25T02:31:27.478Z,0
2017-08-25T02:32:27.489Z,0
2017-08-25T02:33:27.421Z,0
2017-08-25T02:34:27.418Z,0
2017-08-25T02:35:27.459Z,0
2017-08-25T02:36:27.463Z,0
2017-08-25T02:37:27.527Z,0
2017-08-25T02:38:27.461Z,0
2017-08-25T02:39:27.430Z,0
2017-08-25T02:40:27.419Z,0
2017-08-25T02:41:27.424Z,0
2017-08-25T02:42:27.465Z,0
2017-08-25T02:43:27.497Z,0
2017-08-25T02:44:27.449Z,0
2017-08-25T02:45:27.488Z,0
2017-08-25T02:46:27.417Z,0
2017-08-25T02:47:27.405Z,0
2017-08-25T02:48:27.491Z,0
2017-08-25T02:49:27.408Z,0
2017-08-25T02:50:27.401Z,0
2017-08-25T02:51:27.491Z,0
2017-08-25T02:52:27.436Z,0
2017-08-25T02:53:27.460Z,0
2017-08-25T02:54:27.426Z,0
2017-08-25T02:55:27.490Z,0
2017-08-25T02:56:27.432Z,0
2017-08-25T02:57:27.472Z,0
2017-08-25T02:58:27.408Z,0
2017-08-25T02:59:27.530Z,0
2017-08-25T03:00:27.405Z,0
2017-08-25T03:01:27.426Z,0
2017-08-25T03:02:27.496Z,0
2017-08-25T03:03:27.464Z,0
2017-08-25T03:04:27.502Z,0
2017-08-25T03:05:27.446Z,0
2017-08-25T03:06:27.460Z,0
2017-08-25T03:07:27.439Z,0
2017-08-25T03:08:27.473Z,0
2017-08-25T03:09:27.461Z,0
2017-08-25T03:10:27.508Z,0
2017-08-25T03:11:27.498Z,0
2017-08-25T03:12:27.416Z,0
2017-08-25T03:13:27.415Z,0
2017-08-25T03:14:27.485Z,0
2017-08-25T03:15:27.508Z,0
2017-08-25T03:16:27.483Z,0
2017-08-25T03:17:27.433Z,0
2017-08-25T03:18:27.436Z,0
2017-08-25T03:19:27.437Z,0
2017-08-25T03:20:27.437Z,0
2017-08-25T03:21:27.471Z,0
2017-08-25T03:22:27.492Z,0
2017-08-25T03:23:27.438Z,0
2017-08-25T03:24:27.414Z,0
2017-08-25T03:25:27.413Z,0
2017-08-25T03:26:27.473Z,0
2017-08-25T03:27:27.496Z,0
2017-08-25T03:28:27.529Z,0
2017-08-25T03:29:27.479Z,0
2017-08-25T03:30:27.485Z,0
2017-08-25T03:31:27.484Z,0
2017-08-25T03:32:27.461Z,0
2017-08-25T03:33:27.434Z,0
2017-08-25T03:34:27.459Z,0
2017-08-25T03:35:27.481Z,0
2017-08-25T03:36:27.538Z,0
2017-08-25T03:37:27.422Z,0
2017-08-25T03:38:27.451Z,0
2017-08-25T03:39:27.483Z,0
2017-08-25T03:40:27.450Z,0
2017-08-25T03:41:27.451Z,0
2017-08-25T03:42:27.424Z,0
2017-08-25T03:43:27.426Z,0
2017-08-25T03:44:27.427Z,0
2017-08-25T03:45:27.455Z,0
2017-08-25T03:46:27.428Z,4
2017-08-25T03:47:27.488Z,4
2017-08-25T03:48:27.459Z,4
2017-08-25T03:49:27.490Z,4
2017-08-25T03:50:27.504Z,4
2017-08-25T03:51:27.561Z,4
2017-08-25T03:52:27.442Z,8
2017-08-25T03:53:27.464Z,8
2017-08-25T03:54:27.442Z,8
2017-08-25T03:55:27.448Z,12
2017-08-25T03:56:27.474Z,8
2017-08-25T03:57:27.435Z,16
2017-08-25T03:58:27.465Z,16
2017-08-25T03:59:27.498Z,16
2017-08-25T04:00:27.500Z,20
2017-08-25T04:01:27.465Z,24
2017-08-25T04:02:27.464Z,28
2017-08-25T04:03:27.505Z,32
2017-08-25T04:04:27.505Z,40
2017-08-25T04:05:27.439Z,44
2017-08-25T04:06:27.504Z,52
2017-08-25T04:07:27.442Z,60
2017-08-25T04:08:27.470Z,72
2017-08-25T04:09:27.529Z,88
2017-08-25T04:10:27.536Z,108
2017-08-25T04:11:27.472Z,132
2017-08-25T04:12:27.501Z,156
2017-08-25T04:13:27.450Z,180
2017-08-25T04:14:27.474Z,200
2017-08-25T04:15:27.475Z,220
2017-08-25T04:16:27.545Z,248
2017-08-25T04:17:27.501Z,264
2017-08-25T04:18:27.464Z,284
2017-08-25T04:19:27.472Z,308
2017-08-25T04:20:27.466Z,328
2017-08-25T04:21:27.450Z,352
2017-08-25T04:22:27.439Z,384
2017-08-25T04:23:27.451Z,416
2017-08-25T04:24:27.449Z,452
2017-08-25T04:25:27.454Z,500
2017-08-25T04:26:27.427Z,564
2017-08-25T04:27:27.395Z,636
2017-08-25T04:28:27.511Z,724
2017-08-25T04:29:27.439Z,816
2017-08-25T04:30:27.453Z,916
2017-08-25T04:31:27.453Z,1020
2017-08-25T04:32:27.439Z,1128
2017-08-25T04:33:27.462Z,1228
2017-08-25T04:34:27.477Z,1324
2017-08-25T04:35:27.511Z,1424
2017-08-25T04:36:27.470Z,1516
2017-08-25T04:37:27.471Z,1612
2017-08-25T04:38:27.485Z,1704
2017-08-25T04:39:27.469Z,1808
2017-08-25T04:40:27.525Z,1864
2017-08-25T04:41:27.442Z,1940
2017-08-25T04:42:27.480Z,2040
2017-08-25T04:43:27.481Z,2160
2017-08-25T04:44:27.492Z,2256
2017-08-25T04:45:27.440Z,2360
2017-08-25T04:46:27.496Z,2480
2017-08-25T04:47:27.484Z,2588
2017-08-25T04:48:27.458Z,2700
2017-08-25T04:49:27.519Z,2816
2017-08-25T04:50:27.519Z,2964
2017-08-25T04:51:27.460Z,3092
2017-08-25T04:52:27.525Z,3184
2017-08-25T04:53:27.489Z,3252
2017-08-25T04:54:27.528Z,3332
2017-08-25T04:55:27.531Z,3372
2017-08-25T04:56:27.465Z,3468
2017-08-25T04:57:27.650Z,3604
2017-08-25T04:58:27.467Z,3848
2017-08-25T04:59:27.465Z,4192
2017-08-25T05:00:27.467Z,4692
2017-08-25T05:01:27.496Z,5092
2017-08-25T05:02:27.499Z,5412
2017-08-25T05:03:27.469Z,5316
2017-08-25T05:04:27.532Z,5124
2017-08-25T05:05:27.528Z,4632
2017-08-25T05:06:27.537Z,4192
2017-08-25T05:07:27.549Z,4076
2017-08-25T05:08:27.476Z,4048
2017-08-25T05:09:27.502Z,3948
2017-08-25T05:10:27.485Z,3956
2017-08-25T05:11:27.543Z,4256
2017-08-25T05:12:27.575Z,4372
2017-08-25T05:13:27.553Z,4508
2017-08-25T05:14:27.480Z,4660
2017-08-25T05:15:27.480Z,4948
2017-08-25T05:16:27.508Z,5392
2017-08-25T05:17:27.518Z,5460
2017-08-25T05:18:27.579Z,5804
2017-08-25T05:19:27.487Z,6140
2017-08-25T05:20:27.539Z,6840
2017-08-25T05:21:27.514Z,7560
2017-08-25T05:22:27.574Z,7484
2017-08-25T05:23:27.511Z,7992
2017-08-25T05:24:27.517Z,8540
2017-08-25T05:25:27.578Z,9088
2017-08-25T05:26:27.497Z,8856
2017-08-25T05:27:27.489Z,8696
2017-08-25T05:28:27.511Z,9080
2017-08-25T05:29:27.586Z,9772
2017-08-25T05:30:27.494Z,10244
2017-08-25T05:31:27.490Z,10200
2017-08-25T05:32:27.586Z,10288
2017-08-25T05:33:27.503Z,10100
2017-08-25T05:34:27.521Z,10452
2017-08-25T05:35:27.561Z,11348
2017-08-25T05:36:27.558Z,11412
2017-08-25T05:37:27.525Z,11080
2017-08-25T05:38:27.517Z,10652
2017-08-25T05:39:27.558Z,10192
2017-08-25T05:40:27.521Z,10496
2017-08-25T05:41:27.517Z,10840
2017-08-25T05:42:27.553Z,11448
2017-08-25T05:43:27.521Z,11668
2017-08-25T05:44:27.550Z,11660
2017-08-25T05:45:27.522Z,11600
2017-08-25T05:46:27.558Z,11556
2017-08-25T05:47:27.553Z,11748
2017-08-25T05:48:27.554Z,12472
2017-08-25T05:49:27.492Z,13268
2017-08-25T05:50:27.523Z,14776
2017-08-25T05:51:27.559Z,13324
2017-08-25T05:52:27.497Z,14488
2017-08-25T05:53:27.502Z,16924
2017-08-25T05:54:27.559Z,17416
2017-08-25T05:55:27.526Z,18000
2017-08-25T05:56:27.498Z,18468
2017-08-25T05:57:27.532Z,18704
2017-08-25T05:58:27.501Z,20160
2017-08-25T05:59:27.561Z,20128
2017-08-25T06:00:27.565Z,19520
2017-08-25T06:01:27.564Z,20384
2017-08-25T06:02:27.562Z,17940
2017-08-25T06:03:27.503Z,16636
2017-08-25T06:04:27.534Z,16932
2017-08-25T06:05:27.567Z,19388
2017-08-25T06:06:27.590Z,22336
2017-08-25T06:07:27.567Z,22144
2017-08-25T06:08:27.539Z,22144
2017-08-25T06:09:27.492Z,19312
2017-08-25T06:10:27.538Z,17528
2017-08-25T06:11:27.468Z,18372
2017-08-25T06:12:27.533Z,19164
2017-08-25T06:13:27.514Z,22656
2017-08-25T06:14:27.658Z,18960
2017-08-25T06:15:27.515Z,19540
2017-08-25T06:16:27.586Z,22016
2017-08-25T06:17:27.497Z,20768
2017-08-25T06:18:27.549Z,24032
2017-08-25T06:19:27.536Z,26112
2017-08-25T06:20:27.523Z,25184
2017-08-25T06:21:27.516Z,22592
2017-08-25T06:22:27.492Z,23616
2017-08-25T06:23:27.476Z,25344
2017-08-25T06:24:27.541Z,24864
2017-08-25T06:25:27.550Z,22976
2017-08-25T06:26:27.552Z,26304
2017-08-25T06:27:27.551Z,26496
2017-08-25T06:28:27.527Z,26464
2017-08-25T06:29:27.591Z,29440
2017-08-25T06:30:27.529Z,29952
2017-08-25T06:31:27.589Z,29280
2017-08-25T06:32:27.602Z,31104
2017-08-25T06:33:27.621Z,30976
2017-08-25T06:34:27.605Z,30944
2017-08-25T06:35:27.567Z,30240
2017-08-25T06:36:27.672Z,29888
2017-08-25T06:37:27.617Z,26912
2017-08-25T06:38:27.594Z,27328
2017-08-25T06:39:27.604Z,27904
2017-08-25T06:40:27.607Z,29120
2017-08-25T06:41:27.610Z,30016
2017-08-25T06:42:27.628Z,31936
2017-08-25T06:43:27.627Z,33216
2017-08-25T06:44:27.635Z,33792
2017-08-25T06:45:27.568Z,33280
2017-08-25T06:46:27.544Z,33696
2017-08-25T06:47:27.577Z,33568
2017-08-25T06:48:27.534Z,28864
2017-08-25T06:49:27.536Z,33408
2017-08-25T06:50:27.562Z,35136
2017-08-25T06:51:27.568Z,34176
2017-08-25T06:52:27.601Z,34720
2017-08-25T06:53:27.534Z,37344
2017-08-25T06:54:27.585Z,37856
2017-08-25T06:55:27.537Z,36992
2017-08-25T06:56:27.601Z,39776
2017-08-25T06:57:27.587Z,38656
2017-08-25T06:58:27.648Z,36576
2017-08-25T06:59:27.573Z,35040
2017-08-25T07:00:27.640Z,34144
2017-08-25T07:01:27.543Z,35872
2017-08-25T07:02:27.554Z,35744
2017-08-25T07:03:27.642Z,34016
2017-08-25T07:04:27.622Z,38240
2017-08-25T07:05:27.642Z,37280
2017-08-25T07:06:27.586Z,37856
2017-08-25T07:07:27.643Z,37376
2017-08-25T07:08:27.555Z,37472
2017-08-25T07:09:27.572Z,36096
2017-08-25T07:10:27.555Z,36864
2017-08-25T07:11:27.573Z,38368
2017-08-25T07:12:27.529Z,37024
2017-08-25T07:13:27.618Z,38720
2017-08-25T07:14:27.557Z,38368
2017-08-25T07:15:27.548Z,29120
2017-08-25T07:16:27.552Z,32416
2017-08-25T07:17:27.561Z,33984
2017-08-25T07:18:27.547Z,36640
2017-08-25T07:19:27.611Z,37216
2017-08-25T07:20:27.550Z,38144
2017-08-25T07:21:27.560Z,41440
2017-08-25T07:22:27.625Z,45568
2017-08-25T07:23:27.646Z,53280
2017-08-25T07:24:27.635Z,54656
2017-08-25T07:26:27.584Z,57024
2017-08-25T07:27:27.556Z,67872
2017-08-25T07:28:27.623Z,63840
2017-08-25T07:29:27.583Z,66016
2017-08-25T07:30:27.625Z,69632
2017-08-25T07:31:27.586Z,57536
2017-08-25T07:32:27.672Z,46656
2017-08-25T07:33:27.572Z,42080
2017-08-25T07:34:27.622Z,35968
2017-08-25T07:35:27.619Z,35520
2017-08-25T07:36:27.632Z,36224
2017-08-25T07:37:27.591Z,36256
2017-08-25T07:38:27.604Z,51520
2017-08-25T07:39:27.595Z,55520
2017-08-25T07:40:27.603Z,76896
2017-08-25T07:41:27.609Z,86944
2017-08-25T07:42:27.569Z,86112
2017-08-25T07:43:27.610Z,85664
2017-08-25T07:44:27.666Z,82080
2017-08-25T07:45:27.612Z,71168
2017-08-25T07:46:27.702Z,76704
2017-08-25T07:47:27.569Z,83584
2017-08-25T07:48:27.571Z,83552
2017-08-25T07:49:27.572Z,63328
2017-08-25T07:50:27.666Z,74176
2017-08-25T07:51:27.614Z,68704
2017-08-25T07:52:27.613Z,75776
2017-08-25T07:53:27.635Z,85568
2017-08-25T07:54:27.633Z,78496
2017-08-25T07:55:27.647Z,85504
2017-08-25T07:56:27.674Z,84288
2017-08-25T07:57:27.645Z,85632
2017-08-25T07:58:27.599Z,90080
2017-08-25T07:59:27.644Z,86368
2017-08-25T08:00:27.577Z,90976
2017-08-25T08:01:27.596Z,84096
2017-08-25T08:02:27.589Z,85760
2017-08-25T08:03:27.585Z,92576
2017-08-25T08:04:27.581Z,96928
2017-08-25T08:05:27.616Z,102496
2017-08-25T08:06:27.612Z,92128
2017-08-25T08:07:27.579Z,95360
2017-08-25T08:08:27.644Z,88288
2017-08-25T08:09:27.579Z,95200
2017-08-25T08:10:27.609Z,105600
2017-08-25T08:11:27.609Z,94240
2017-08-25T08:12:27.608Z,53824
2017-08-25T08:13:27.608Z,55168
2017-08-25T08:14:27.585Z,49248
2017-08-25T08:15:27.584Z,47136
2017-08-25T08:16:27.648Z,47296
2017-08-25T08:17:27.644Z,48352
2017-08-25T08:18:27.614Z,50592
2017-08-25T08:19:27.590Z,55136
2017-08-25T08:20:27.557Z,64512
2017-08-25T08:21:27.602Z,93472
2017-08-25T08:22:27.661Z,108864
2017-08-25T08:23:27.601Z,105856
2017-08-25T08:24:27.661Z,79712
2017-08-25T08:26:27.619Z,83072
2017-08-25T08:27:27.570Z,86976
2017-08-25T08:28:27.621Z,91072
2017-08-25T08:29:27.623Z,102720
2017-08-25T08:30:27.653Z,108768
2017-08-25T08:31:27.702Z,96000
2017-08-25T08:32:27.625Z,65632
2017-08-25T08:33:27.655Z,59104
2017-08-25T08:34:27.652Z,69920
2017-08-25T08:35:27.620Z,87392
2017-08-25T08:36:27.598Z,93312
2017-08-25T08:37:27.658Z,99200
2017-08-25T08:38:27.631Z,107296
2017-08-25T08:39:27.552Z,101760
2017-08-25T08:40:27.625Z,103488
2017-08-25T08:41:27.578Z,77280
2017-08-25T08:42:27.611Z,81408
2017-08-25T08:43:27.598Z,87552
2017-08-25T08:44:27.624Z,77376
2017-08-25T08:45:27.608Z,77728
2017-08-25T08:46:27.634Z,101120
2017-08-25T08:47:27.609Z,90496
2017-08-25T08:48:27.633Z,97312
2017-08-25T08:49:27.681Z,117088
2017-08-25T08:50:27.629Z,117536
2017-08-25T08:51:27.668Z,111200
2017-08-25T08:52:27.613Z,118624
2017-08-25T08:53:27.701Z,121568
2017-08-25T08:54:27.642Z,109952
2017-08-25T08:55:27.698Z,100288
2017-08-25T08:56:27.636Z,96960
2017-08-25T08:57:27.655Z,105952
2017-08-25T08:58:27.646Z,112864
2017-08-25T08:59:27.636Z,111136
2017-08-25T09:00:27.649Z,105248
2017-08-25T09:01:27.644Z,102016
2017-08-25T09:02:27.599Z,86528
2017-08-25T09:03:27.684Z,84704
2017-08-25T09:04:27.608Z,90112
2017-08-25T09:05:27.639Z,84448
2017-08-25T09:06:27.642Z,82304
2017-08-25T09:07:27.684Z,101312
2017-08-25T09:08:27.625Z,83936
2017-08-25T09:09:27.660Z,95264
2017-08-25T09:11:27.718Z,97824
2017-08-25T09:12:27.623Z,70304
2017-08-25T09:13:27.686Z,69760
2017-08-25T09:14:27.628Z,68160
2017-08-25T09:15:27.688Z,64064
2017-08-25T09:16:27.718Z,88896
2017-08-25T09:17:27.658Z,73184
2017-08-25T09:18:27.681Z,58368
2017-08-25T09:19:27.625Z,80416
2017-08-25T09:20:27.632Z,100288
2017-08-25T09:21:27.722Z,114144
2017-08-25T09:22:27.629Z,115776
2017-08-25T09:23:27.662Z,115296
2017-08-25T09:24:27.634Z,95968
2017-08-25T09:25:27.654Z,61184
2017-08-25T09:26:27.653Z,56608
2017-08-25T09:27:27.685Z,62368
2017-08-25T09:28:27.685Z,63616
2017-08-25T09:29:27.639Z,60448
2017-08-25T09:30:27.657Z,58432
2017-08-25T09:31:27.692Z,62144
2017-08-25T09:32:27.696Z,99936
2017-08-25T09:33:27.643Z,92256
2017-08-25T09:34:27.661Z,86976
2017-08-25T09:35:27.634Z,98272
2017-08-25T09:36:27.665Z,118848
2017-08-25T09:37:27.700Z,133856
2017-08-25T09:38:27.640Z,129408
2017-08-25T09:39:27.672Z,99232
2017-08-25T09:40:27.666Z,120864
2017-08-25T09:41:27.639Z,111520
2017-08-25T09:42:27.641Z,113216
2017-08-25T09:43:27.672Z,110080
2017-08-25T09:44:27.742Z,118336
2017-08-25T09:45:27.679Z,119552
2017-08-25T09:46:27.645Z,120896
2017-08-25T09:47:27.719Z,123712
2017-08-25T09:48:27.680Z,127456
2017-08-25T09:49:27.733Z,128672
2017-08-25T09:50:27.685Z,133344
2017-08-25T09:51:27.648Z,128224
2017-08-25T09:52:27.680Z,128864
2017-08-25T09:53:27.680Z,125856
2017-08-25T09:54:27.667Z,120608
2017-08-25T09:55:27.651Z,133216
2017-08-25T09:56:27.728Z,115040
2017-08-25T09:57:27.689Z,128384
2017-08-25T09:58:27.705Z,85312
2017-08-25T09:59:27.655Z,104288
2017-08-25T10:00:27.671Z,126112
2017-08-25T10:01:27.744Z,125504
2017-08-25T10:02:27.718Z,120032
2017-08-25T10:03:27.691Z,135872
2017-08-25T10:04:27.744Z,133120
2017-08-25T10:05:27.726Z,117888
2017-08-25T10:06:27.746Z,114752
2017-08-25T10:07:27.658Z,116288
2017-08-25T10:08:27.678Z,104832
2017-08-25T10:09:27.696Z,122496
2017-08-25T10:10:27.696Z,120448
2017-08-25T10:11:27.723Z,131584
2017-08-25T10:12:27.653Z,125024
2017-08-25T10:13:27.687Z,136000
2017-08-25T10:14:27.767Z,131136
2017-08-25T10:15:27.745Z,123680
2017-08-25T10:16:27.754Z,117184
2017-08-25T10:17:27.723Z,122368
2017-08-25T10:18:27.717Z,125760
2017-08-25T10:19:27.718Z,111776
2017-08-25T10:20:27.714Z,122176
2017-08-25T10:21:27.653Z,131072
2017-08-25T10:22:27.686Z,133120
2017-08-25T10:23:27.687Z,127424
2017-08-25T10:24:27.695Z,121568
2017-08-25T10:25:27.722Z,122752
2017-08-25T10:26:27.661Z,123232
2017-08-25T10:27:27.702Z,115264
2017-08-25T10:28:27.694Z,116608
2017-08-25T10:29:27.667Z,118880
2017-08-25T10:30:27.671Z,124736
2017-08-25T10:31:27.732Z,124512
2017-08-25T10:32:27.725Z,115232
2017-08-25T10:33:27.743Z,120864
2017-08-25T10:34:27.725Z,124512
2017-08-25T10:35:27.709Z,125024
2017-08-25T10:36:27.699Z,128512
2017-08-25T10:37:27.691Z,123808
2017-08-25T10:38:27.769Z,133792
2017-08-25T10:39:27.746Z,139040
2017-08-25T10:40:27.771Z,139232
2017-08-25T10:41:27.764Z,137280
2017-08-25T10:42:27.693Z,132192
2017-08-25T10:43:27.714Z,127648
2017-08-25T10:44:27.714Z,133120
2017-08-25T10:45:27.774Z,142688
2017-08-25T10:46:27.713Z,140640
2017-08-25T10:47:27.767Z,134784
2017-08-25T10:48:27.679Z,129216
2017-08-25T10:49:27.773Z,128896
2017-08-25T10:50:27.681Z,123808
2017-08-25T10:51:27.766Z,126720
2017-08-25T10:52:27.679Z,132800
2017-08-25T10:53:27.716Z,131808
2017-08-25T10:54:27.686Z,127840
2017-08-25T10:55:27.683Z,124864
2017-08-25T10:56:27.683Z,117952
2017-08-25T10:57:27.719Z,119328
2017-08-25T10:58:27.771Z,117600
2017-08-25T10:59:27.705Z,121472
2017-08-25T11:00:27.663Z,128288
2017-08-25T11:01:27.681Z,123744
2017-08-25T11:02:27.672Z,125536
2017-08-25T11:03:27.745Z,119392
2017-08-25T11:04:27.710Z,120640
2017-08-25T11:05:27.680Z,118944
2017-08-25T11:06:27.643Z,111584
2017-08-25T11:07:27.695Z,116160
2017-08-25T11:08:27.640Z,121408
2017-08-25T11:09:27.762Z,123808
2017-08-25T11:10:27.727Z,121760
2017-08-25T11:11:27.762Z,115264
2017-08-25T11:12:27.727Z,117696
2017-08-25T11:13:27.693Z,126592
2017-08-25T11:14:27.728Z,127552
2017-08-25T11:15:27.769Z,128320
2017-08-25T11:16:27.783Z,134592
2017-08-25T11:17:27.761Z,134976
2017-08-25T11:18:27.740Z,133792
2017-08-25T11:19:27.729Z,129952
2017-08-25T11:20:27.722Z,126656
2017-08-25T11:21:27.695Z,121408
2017-08-25T11:22:27.762Z,122368
2017-08-25T11:23:27.721Z,125600
2017-08-25T11:24:27.651Z,125504
2017-08-25T11:25:27.724Z,122336
2017-08-25T11:26:27.672Z,125888
2017-08-25T11:27:27.725Z,129408
2017-08-25T11:28:27.768Z,133536
2017-08-25T11:29:27.800Z,129376
2017-08-25T11:30:27.731Z,136576
2017-08-25T11:31:27.775Z,135104
2017-08-25T11:32:27.792Z,133344
2017-08-25T11:33:27.705Z,124448
2017-08-25T11:34:27.778Z,125312
2017-08-25T11:35:27.762Z,121568
2017-08-25T11:36:27.793Z,130400
2017-08-25T11:37:27.705Z,128864
2017-08-25T11:38:27.711Z,125568
2017-08-25T11:39:27.763Z,122528
2017-08-25T11:40:27.735Z,122848
2017-08-25T11:41:27.770Z,125952
2017-08-25T11:42:27.729Z,130752
2017-08-25T11:43:27.764Z,123584
2017-08-25T11:44:27.764Z,117856
2017-08-25T11:45:27.767Z,130976
2017-08-25T11:46:27.705Z,128576
2017-08-25T11:47:27.707Z,119616
2017-08-25T11:48:27.705Z,126048
2017-08-25T11:49:27.650Z,126592
2017-08-25T11:50:27.702Z,126848
2017-08-25T11:51:27.696Z,114080
2017-08-25T11:52:27.693Z,126880
2017-08-25T11:53:27.696Z,123264
2017-08-25T11:54:27.732Z,121152
2017-08-25T11:55:27.715Z,126304
2017-08-25T11:56:27.729Z,129760
2017-08-25T11:57:27.732Z,127104
2017-08-25T11:58:27.714Z,126048
2017-08-25T11:59:27.794Z,125600
2017-08-25T12:00:27.711Z,123872
2017-08-25T12:01:27.710Z,122464
2017-08-25T12:02:27.743Z,123648
2017-08-25T12:03:27.758Z,125088
2017-08-25T12:04:27.743Z,122880
2017-08-25T12:05:27.747Z,122656
2017-08-25T12:06:27.745Z,122720
2017-08-25T12:07:27.714Z,127328
2017-08-25T12:08:27.781Z,128608
2017-08-25T12:09:27.786Z,124416
2017-08-25T12:10:27.744Z,120352
2017-08-25T12:11:27.743Z,109248
2017-08-25T12:12:27.697Z,114272
2017-08-25T12:13:27.743Z,121888
2017-08-25T12:14:27.750Z,128672
2017-08-25T12:15:27.707Z,130560
2017-08-25T12:16:27.799Z,127104
2017-08-25T12:17:27.684Z,129792
2017-08-25T12:18:27.703Z,120608
2017-08-25T12:19:27.817Z,125792
2017-08-25T12:20:27.762Z,126400
2017-08-25T12:21:27.761Z,123040
2017-08-25T12:22:27.826Z,116352
2017-08-25T12:23:27.807Z,118912
2017-08-25T12:24:27.765Z,122368
2017-08-25T12:25:27.737Z,114528
2017-08-25T12:26:27.750Z,103776
2017-08-25T12:27:27.743Z,108640
2017-08-25T12:28:27.797Z,112128
2017-08-25T12:29:27.808Z,115296
2017-08-25T12:30:27.813Z,108736
2017-08-25T12:31:27.777Z,115808
2017-08-25T12:32:27.809Z,116448
2017-08-25T12:33:27.768Z,113312
2017-08-25T12:34:27.815Z,105856
2017-08-25T12:35:27.802Z,108512
2017-08-25T12:36:27.768Z,95104
2017-08-25T12:37:27.839Z,111392
2017-08-25T12:38:27.743Z,114976
2017-08-25T12:39:27.839Z,113344
2017-08-25T12:40:27.817Z,113472
2017-08-25T12:41:27.803Z,112416
2017-08-25T12:42:27.745Z,111136
2017-08-25T12:43:27.836Z,104128
2017-08-25T12:44:27.838Z,93440
2017-08-25T12:45:27.780Z,101248
2017-08-25T12:46:27.755Z,102336
2017-08-25T12:47:27.781Z,101184
2017-08-25T12:48:27.802Z,95648
2017-08-25T12:49:27.840Z,99200
2017-08-25T12:50:27.809Z,99008
2017-08-25T12:51:27.752Z,94592
2017-08-25T12:52:27.821Z,101600
2017-08-25T12:53:27.759Z,97248
2017-08-25T12:54:27.793Z,104832
2017-08-25T12:55:27.844Z,107552
2017-08-25T12:56:27.786Z,109536
2017-08-25T12:57:27.790Z,105312
2017-08-25T12:58:27.853Z,97600
2017-08-25T12:59:27.782Z,106304
2017-08-25T13:00:27.826Z,113664
2017-08-25T13:01:27.829Z,110752
2017-08-25T13:02:27.829Z,104928
2017-08-25T13:03:27.765Z,100544
2017-08-25T13:04:27.758Z,104992
2017-08-25T13:05:27.797Z,99360
2017-08-25T13:06:27.818Z,99296
2017-08-25T13:07:27.817Z,100352
2017-08-25T13:08:27.766Z,100736
2017-08-25T13:09:27.777Z,104736
2017-08-25T13:10:27.784Z,102656
2017-08-25T13:11:27.771Z,103776
2017-08-25T13:12:27.791Z,106816
2017-08-25T13:13:27.723Z,100352
2017-08-25T13:14:27.779Z,98240
2017-08-25T13:15:27.915Z,101792
2017-08-25T13:16:27.798Z,101888
2017-08-25T13:17:27.735Z,98016
2017-08-25T13:18:27.750Z,97760
2017-08-25T13:19:27.824Z,100640
2017-08-25T13:20:27.823Z,96800
2017-08-25T13:21:27.804Z,93504
2017-08-25T13:22:27.802Z,94464
2017-08-25T13:23:27.865Z,93824